Aviation Digital Data Service (ADDS)

Output produced by METARs form (1801 UTC 26 October 2021)
found at http://aviationweather.gov/metar/data/
 
METAR text: KJOT 261755Z AUTO 36003KT 10SM SCT033 SCT039 BKN047 14/07 A3009 RMK AO2 T01380066 10139 20062
Conditions at: KJOT (JOLIET , IL, US) observed 1755 UTC 26 October 2021
Temperature: 13.8°C (57°F)
Dewpoint: 6.6°C (44°F) [RH = 62%]
Pressure (altimeter): 30.09 inches Hg (1019.0 mb)
Winds: from the N (360 degrees) at 3 MPH (3 knots; 1.5 m/s)
Visibility: 10 or more miles (16+ km)
Ceiling: 4700 feet AGL
Clouds: scattered clouds at 3300 feet AGL
scattered clouds at 3900 feet AGL
broken clouds at 4700 feet AGL
Weather: automated observation with no human augmentation;
there may or may not be significant weather present at this time